createdAt,value
2018-11-06T00:01:15.930Z,27.73
2018-11-06T00:03:25.166Z,21.50
2018-11-06T00:05:31.317Z,21.57
2018-11-06T00:07:37.208Z,23.40
2018-11-06T00:09:43.608Z,19.13
2018-11-06T00:11:49.978Z,15.97
2018-11-06T00:13:56.089Z,16.50
2018-11-06T00:16:01.767Z,17.07
2018-11-06T00:18:07.656Z,12.90
2018-11-06T00:20:14.639Z,11.20
2018-11-06T00:22:20.742Z,13.60
2018-11-06T00:24:26.701Z,10.30
2018-11-06T00:26:32.889Z,12.13
2018-11-06T00:28:38.481Z,14.90
2018-11-06T00:30:44.424Z,19.20
2018-11-06T00:32:50.045Z,14.90
2018-11-06T00:34:56.193Z,16.47
2018-11-06T00:37:02.078Z,17.47
2018-11-06T00:39:08.042Z,14.77
2018-11-06T00:41:14.826Z,14.57
2018-11-06T00:43:20.779Z,13.27
2018-11-06T00:45:27.654Z,11.23
2018-11-06T00:47:33.545Z,12.77
2018-11-06T00:49:39.091Z,13.03
2018-11-06T00:51:45.002Z,13.63
2018-11-06T00:53:51.778Z,12.50
2018-11-06T00:55:57.656Z,12.23
2018-11-06T00:58:05.359Z,14.83
2018-11-06T01:00:11.273Z,9.30
2018-11-06T01:02:16.730Z,10.47
2018-11-06T01:04:22.875Z,14.47
2018-11-06T01:06:32.247Z,19.03
2018-11-06T01:08:39.490Z,9.53
2018-11-06T01:10:45.125Z,12.20
2018-11-06T01:12:50.950Z,10.90
2018-11-06T01:14:56.530Z,14.40
2018-11-06T01:17:02.451Z,10.53
2018-11-06T01:19:08.602Z,9.30
2018-11-06T01:21:14.615Z,9.60
2018-11-06T01:23:20.381Z,12.67
2018-11-06T01:25:26.231Z,10.20
2018-11-06T01:27:31.039Z,11.23
2018-11-06T01:29:37.117Z,7.03
2018-11-06T01:31:42.620Z,12.40
2018-11-06T01:33:48.295Z,9.03
2018-11-06T01:35:54.182Z,14.60
2018-11-06T01:38:00.391Z,11.43
2018-11-06T01:40:06.349Z,9.23
2018-11-06T01:42:12.239Z,12.83
2018-11-06T01:44:19.264Z,11.33
2018-11-06T01:46:24.960Z,9.10
2018-11-06T01:48:30.302Z,11.57
2018-11-06T01:50:36.184Z,8.20
2018-11-06T01:52:42.069Z,13.63
2018-11-06T01:54:47.784Z,10.00
2018-11-06T01:56:53.572Z,7.20
2018-11-06T01:58:59.274Z,9.67
2018-11-06T02:01:05.165Z,9.40
2018-11-06T02:03:11.517Z,9.20
2018-11-06T02:05:18.263Z,10.33
2018-11-06T02:07:23.913Z,12.07
2018-11-06T02:09:29.890Z,10.13
2018-11-06T02:11:36.141Z,9.80
2018-11-06T02:13:42.282Z,10.43
2018-11-06T02:15:48.455Z,7.60
2018-11-06T02:17:54.190Z,9.50
2018-11-06T02:19:59.833Z,6.40
2018-11-06T02:22:06.264Z,10.30
2018-11-06T02:24:12.180Z,10.90
2018-11-06T02:26:17.592Z,8.90
2018-11-06T02:28:23.415Z,10.17
2018-11-06T02:30:29.380Z,5.27
2018-11-06T02:32:35.074Z,8.17
2018-11-06T02:34:40.673Z,10.53
2018-11-06T02:36:45.974Z,10.73
2018-11-06T02:38:51.108Z,8.40
2018-11-06T02:40:56.794Z,9.93
2018-11-06T02:43:02.354Z,10.63
2018-11-06T02:45:07.788Z,6.43
2018-11-06T02:47:14.254Z,6.70
2018-11-06T02:49:20.838Z,8.37
2018-11-06T02:51:26.720Z,7.07
2018-11-06T02:53:32.253Z,6.60
2018-11-06T02:55:37.923Z,6.30
2018-11-06T02:57:43.881Z,7.23
2018-11-06T02:59:49.650Z,9.60
2018-11-06T03:01:55.203Z,7.60
2018-11-06T03:04:00.979Z,8.40
2018-11-06T03:06:06.529Z,8.93
2018-11-06T03:08:12.406Z,7.23
2018-11-06T03:10:18.389Z,5.47
2018-11-06T03:12:24.194Z,5.83
2018-11-06T03:14:30.198Z,5.93
2018-11-06T03:16:36.287Z,10.33
2018-11-06T03:18:42.276Z,7.63
2018-11-06T03:20:48.221Z,7.80
2018-11-06T03:22:54.062Z,6.27
2018-11-06T03:24:59.702Z,7.20
2018-11-06T03:27:05.932Z,9.03
2018-11-06T03:29:11.968Z,8.70
2018-11-06T03:31:17.927Z,6.67
2018-11-06T03:33:23.884Z,8.00
2018-11-06T03:35:30.013Z,8.30
2018-11-06T03:37:35.631Z,6.97
2018-11-06T03:39:41.090Z,6.60
2018-11-06T03:41:47.240Z,5.30
2018-11-06T03:43:52.816Z,5.90
2018-11-06T03:45:58.563Z,8.30
2018-11-06T03:48:04.148Z,6.27
2018-11-06T03:50:09.574Z,6.57
2018-11-06T03:52:15.517Z,5.00
2018-11-06T03:54:21.566Z,5.47
2018-11-06T03:56:27.594Z,6.20
2018-11-06T03:58:32.999Z,7.00
2018-11-06T04:00:38.768Z,5.40
2018-11-06T04:02:44.479Z,6.33
2018-11-06T04:04:50.089Z,6.07
2018-11-06T04:06:55.704Z,4.43
2018-11-06T04:09:01.216Z,7.80
2018-11-06T04:11:06.893Z,6.30
2018-11-06T04:13:12.676Z,4.37
2018-11-06T04:15:18.174Z,5.70
2018-11-06T04:17:24.606Z,5.33
2018-11-06T04:19:30.453Z,6.40
2018-11-06T04:21:39.135Z,4.40
2018-11-06T04:23:44.301Z,5.17
2018-11-06T04:25:50.218Z,4.83
2018-11-06T04:27:55.181Z,4.47
2018-11-06T04:30:00.975Z,4.00
2018-11-06T04:32:06.380Z,5.20
2018-11-06T04:34:12.079Z,6.33
2018-11-06T04:36:18.071Z,5.93
2018-11-06T04:38:23.935Z,5.10
2018-11-06T04:40:29.951Z,4.97
2018-11-06T04:42:36.154Z,8.03
2018-11-06T04:44:41.766Z,5.80
2018-11-06T04:46:46.959Z,5.43
2018-11-06T04:48:52.907Z,5.80
2018-11-06T04:50:59.130Z,4.40
2018-11-06T04:53:05.102Z,4.43
2018-11-06T04:55:10.986Z,5.43
2018-11-06T04:57:16.644Z,5.83
2018-11-06T04:59:22.298Z,4.23
2018-11-06T05:01:28.940Z,4.60
2018-11-06T05:03:34.706Z,5.03
2018-11-06T05:05:40.761Z,5.17
2018-11-06T05:07:46.441Z,4.17
2018-11-06T05:09:52.791Z,4.00
2018-11-06T05:11:58.402Z,3.70
2018-11-06T05:14:04.239Z,4.40
2018-11-06T05:16:10.460Z,4.97
2018-11-06T05:18:16.260Z,4.10
2018-11-06T05:20:22.549Z,4.00
2018-11-06T05:22:28.380Z,4.93
2018-11-06T05:24:34.172Z,3.77
2018-11-06T05:26:39.552Z,5.47
2018-11-06T05:28:44.886Z,5.23
2018-11-06T05:30:50.798Z,6.10
2018-11-06T05:32:56.292Z,3.90
2018-11-06T05:35:02.231Z,3.93
2018-11-06T05:37:08.110Z,3.80
2018-11-06T05:39:14.463Z,7.27
2018-11-06T05:41:20.338Z,5.07
2018-11-06T05:43:26.444Z,4.50
2018-11-06T05:45:32.091Z,3.50
2018-11-06T05:47:38.412Z,6.63
2018-11-06T05:49:43.851Z,4.17
2018-11-06T05:51:49.660Z,4.17
2018-11-06T05:53:55.276Z,5.53
2018-11-06T05:56:01.218Z,4.77
2018-11-06T05:58:07.051Z,3.40
2018-11-06T06:00:12.499Z,5.27
2018-11-06T06:02:18.595Z,5.80
2018-11-06T06:04:24.477Z,4.20
2018-11-06T06:06:30.125Z,4.00
2018-11-06T06:08:35.936Z,3.57
2018-11-06T06:10:41.384Z,5.27
2018-11-06T06:12:47.012Z,4.30
2018-11-06T06:14:53.645Z,6.87
2018-11-06T06:16:59.514Z,5.50
2018-11-06T06:19:05.657Z,3.30
2018-11-06T06:21:11.623Z,3.57
2018-11-06T06:23:17.432Z,3.90
2018-11-06T06:25:23.089Z,4.10
2018-11-06T06:27:29.839Z,3.07
2018-11-06T06:29:35.547Z,3.50
2018-11-06T06:31:40.871Z,3.40
2018-11-06T06:33:46.473Z,3.20
2018-11-06T06:35:51.878Z,3.23
2018-11-06T06:37:57.410Z,4.37
2018-11-06T06:40:03.333Z,4.37
2018-11-06T06:42:08.999Z,4.00
2018-11-06T06:44:15.361Z,4.60
2018-11-06T06:46:21.488Z,3.20
2018-11-06T06:48:27.128Z,5.43
2018-11-06T06:50:32.661Z,3.10
2018-11-06T06:52:38.812Z,3.23
2018-11-06T06:54:44.293Z,2.97
2018-11-06T06:56:50.757Z,3.60
2018-11-06T06:58:56.530Z,2.87
2018-11-06T07:01:02.120Z,2.90
2018-11-06T07:03:07.428Z,3.30
2018-11-06T07:05:19.085Z,4.20
2018-11-06T07:07:24.367Z,2.77
2018-11-06T07:09:30.296Z,3.43
2018-11-06T07:11:36.092Z,2.90
2018-11-06T07:13:41.575Z,3.63
2018-11-06T07:15:47.424Z,2.93
2018-11-06T07:17:53.825Z,3.50
2018-11-06T07:19:59.331Z,4.20
2018-11-06T07:22:05.344Z,3.43
2018-11-06T07:24:10.967Z,2.70
2018-11-06T07:26:16.874Z,3.23
2018-11-06T07:28:22.340Z,4.10
2018-11-06T07:30:28.072Z,3.27
2018-11-06T07:32:33.688Z,4.37
2018-11-06T07:34:39.828Z,3.80
2018-11-06T07:36:45.471Z,4.43
2018-11-06T07:38:52.364Z,4.20
2018-11-06T07:40:58.067Z,3.50
2018-11-06T07:43:03.880Z,3.23
2018-11-06T07:45:09.818Z,3.30
2018-11-06T07:47:15.604Z,3.07
2018-11-06T07:49:20.687Z,3.80
2018-11-06T07:51:26.669Z,3.20
2018-11-06T07:53:32.445Z,2.90
2018-11-06T07:55:38.093Z,2.43
2018-11-06T07:57:43.462Z,3.13
2018-11-06T07:59:49.124Z,4.53
2018-11-06T08:01:54.859Z,3.80
2018-11-06T08:04:00.198Z,3.23
2018-11-06T08:06:05.812Z,4.00
2018-11-06T08:08:11.150Z,2.63
2018-11-06T08:10:16.828Z,3.20
2018-11-06T08:12:22.542Z,3.53
2018-11-06T08:14:27.993Z,3.80
2018-11-06T08:16:33.564Z,2.63
2018-11-06T08:18:39.097Z,3.00
2018-11-06T08:20:44.755Z,3.93
2018-11-06T08:22:50.369Z,2.57
2018-11-06T08:24:56.424Z,4.27
2018-11-06T08:27:01.964Z,2.60
2018-11-06T08:29:07.557Z,2.93
2018-11-06T08:31:13.310Z,2.97
2018-11-06T08:33:19.169Z,2.57
2018-11-06T08:35:24.914Z,2.70
2018-11-06T08:37:30.539Z,3.57
2018-11-06T08:39:36.201Z,2.73
2018-11-06T08:41:41.804Z,4.03
2018-11-06T08:43:47.519Z,4.03
2018-11-06T08:45:53.070Z,3.10
2018-11-06T08:47:59.159Z,3.00
2018-11-06T08:50:04.491Z,10.10
2018-11-06T08:52:11.273Z,3.47
2018-11-06T08:54:16.571Z,2.53
2018-11-06T08:56:22.260Z,4.20
2018-11-06T08:58:27.707Z,2.60
2018-11-06T09:00:33.273Z,2.77
2018-11-06T09:02:38.926Z,3.50
2018-11-06T09:04:44.539Z,2.50
2018-11-06T09:06:50.582Z,2.33
2018-11-06T09:08:55.972Z,3.80
2018-11-06T09:11:01.135Z,2.43
2018-11-06T09:13:06.281Z,3.00
2018-11-06T09:15:11.742Z,3.73
2018-11-06T09:17:16.797Z,6.53
2018-11-06T09:19:22.083Z,4.40
2018-11-06T09:21:27.299Z,2.43
2018-11-06T09:23:33.585Z,10.70
2018-11-06T09:25:39.122Z,15.40
2018-11-06T09:27:45.084Z,7.40
2018-11-06T09:29:50.538Z,7.67
2018-11-06T09:31:56.884Z,37.90
2018-11-06T09:34:03.042Z,12.57
2018-11-06T09:36:08.272Z,12.13
2018-11-06T09:38:14.232Z,9.20
2018-11-06T09:40:21.551Z,5.87
2018-11-06T09:42:27.434Z,6.27
2018-11-06T09:46:39.620Z,9.97
2018-11-06T09:48:45.751Z,6.73
2018-11-06T09:50:51.424Z,7.50
2018-11-06T09:52:57.143Z,6.37
2018-11-06T09:55:02.746Z,7.00
2018-11-06T09:57:08.177Z,6.30
2018-11-06T09:59:14.620Z,6.67
2018-11-06T10:01:19.929Z,5.50
2018-11-06T10:03:25.557Z,5.43
2018-11-06T10:05:30.989Z,4.60
2018-11-06T10:07:36.278Z,3.27
2018-11-06T10:09:41.711Z,6.70
2018-11-06T10:11:47.650Z,3.23
2018-11-06T10:13:52.660Z,4.03
2018-11-06T10:15:59.750Z,5.13
2018-11-06T10:18:05.273Z,2.90
2018-11-06T10:20:10.759Z,4.23
2018-11-06T10:22:16.304Z,3.00
2018-11-06T10:24:22.061Z,2.83
2018-11-06T10:26:28.361Z,2.87
2018-11-06T10:28:34.043Z,2.80
2018-11-06T10:30:39.673Z,6.23
2018-11-06T10:32:45.853Z,4.40
2018-11-06T10:34:51.922Z,6.17
2018-11-06T10:36:58.863Z,3.70
2018-11-06T10:39:05.354Z,4.37
2018-11-06T10:41:11.536Z,12.00
2018-11-06T10:43:18.521Z,6.93
2018-11-06T10:45:24.497Z,4.07
2018-11-06T10:47:30.415Z,5.77
2018-11-06T10:49:35.971Z,7.40
2018-11-06T10:51:41.843Z,5.23
2018-11-06T10:53:47.744Z,5.70
2018-11-06T10:55:53.386Z,4.90
2018-11-06T10:57:59.095Z,4.00
2018-11-06T11:00:04.845Z,4.63
2018-11-06T11:02:14.756Z,5.30
2018-11-06T11:04:21.885Z,5.70
2018-11-06T11:06:27.813Z,3.10
2018-11-06T11:08:33.710Z,3.77
2018-11-06T11:10:39.343Z,3.93
2018-11-06T11:12:45.391Z,3.93
2018-11-06T11:14:51.446Z,3.10
2018-11-06T11:16:57.501Z,2.97
2018-11-06T11:19:03.181Z,2.60
2018-11-06T11:21:08.595Z,4.00
2018-11-06T11:23:14.340Z,6.43
2018-11-06T11:25:20.324Z,7.60
2018-11-06T11:27:25.726Z,10.77
2018-11-06T11:29:30.973Z,8.30
2018-11-06T11:31:36.553Z,3.07
2018-11-06T11:33:42.037Z,3.30
2018-11-06T11:35:47.894Z,5.03
2018-11-06T11:37:54.956Z,3.50
2018-11-06T11:40:00.943Z,6.30
2018-11-06T11:42:06.520Z,3.90
2018-11-06T11:44:12.685Z,8.27
2018-11-06T11:46:18.492Z,3.50
2018-11-06T11:48:24.248Z,3.03
2018-11-06T11:50:29.593Z,4.73
2018-11-06T11:52:35.395Z,2.97
2018-11-06T11:54:41.163Z,6.70
2018-11-06T11:56:46.995Z,3.17
2018-11-06T11:58:52.590Z,6.83
2018-11-06T12:00:58.529Z,4.80
2018-11-06T12:03:04.427Z,3.20
2018-11-06T12:05:10.168Z,4.37
2018-11-06T12:07:15.696Z,5.90
2018-11-06T12:09:21.336Z,5.60
2018-11-06T12:11:27.296Z,4.70
2018-11-06T12:13:33.412Z,3.00
2018-11-06T12:15:39.398Z,5.07
2018-11-06T12:17:46.314Z,4.20
2018-11-06T12:19:51.979Z,4.20
2018-11-06T12:21:58.637Z,5.20
2018-11-06T12:24:05.135Z,4.73
2018-11-06T12:26:11.388Z,4.43
2018-11-06T12:28:17.623Z,4.70
2018-11-06T12:30:23.685Z,4.83
2018-11-06T12:32:29.678Z,8.63
2018-11-06T12:34:35.924Z,3.13
2018-11-06T12:36:42.875Z,5.70
2018-11-06T12:38:48.645Z,4.70
2018-11-06T12:40:54.377Z,6.60
2018-11-06T12:43:00.069Z,4.73
2018-11-06T12:45:05.708Z,5.20
2018-11-06T12:47:10.852Z,5.87
2018-11-06T12:49:16.995Z,6.73
2018-11-06T12:51:22.995Z,42.70
2018-11-06T12:53:28.655Z,319.03
2018-11-06T12:55:34.286Z,904.17
2018-11-06T12:57:39.985Z,777.40
2018-11-06T12:59:45.612Z,518.70
2018-11-06T13:01:51.063Z,305.23
2018-11-06T13:03:56.326Z,93.97
2018-11-06T13:06:01.802Z,31.70
2018-11-06T13:08:07.218Z,27.53
2018-11-06T13:10:13.578Z,21.20
2018-11-06T13:12:19.585Z,7.60
2018-11-06T13:14:30.258Z,10.77
2018-11-06T13:16:36.809Z,10.33
2018-11-06T13:18:43.200Z,7.97
2018-11-06T13:20:50.274Z,9.67
2018-11-06T13:22:55.932Z,9.70
2018-11-06T13:25:01.407Z,12.40
2018-11-06T13:27:07.368Z,8.33
2018-11-06T13:29:12.974Z,9.33
2018-11-06T13:31:18.763Z,14.10
2018-11-06T13:33:24.141Z,17.17
2018-11-06T13:35:29.799Z,12.63
2018-11-06T13:37:35.245Z,14.80
2018-11-06T13:39:41.373Z,15.67
2018-11-06T13:41:47.460Z,13.50
2018-11-06T13:43:53.204Z,12.83
2018-11-06T13:45:59.035Z,12.93
2018-11-06T13:48:05.098Z,15.90
2018-11-06T13:50:11.363Z,14.80
2018-11-06T13:52:17.040Z,13.80
2018-11-06T13:54:22.350Z,12.47
2018-11-06T13:56:28.207Z,14.80
2018-11-06T13:58:33.687Z,14.00
2018-11-06T14:00:39.354Z,18.90
2018-11-06T14:02:45.238Z,14.27
2018-11-06T14:04:51.737Z,13.70
2018-11-06T14:06:57.310Z,16.90
2018-11-06T14:09:02.585Z,16.00
2018-11-06T14:11:08.148Z,14.83
2018-11-06T14:13:14.090Z,12.33
2018-11-06T14:15:20.333Z,15.13
2018-11-06T14:17:25.971Z,15.80
2018-11-06T14:19:32.080Z,17.33
2018-11-06T14:21:38.052Z,12.77
2018-11-06T14:23:44.108Z,14.03
2018-11-06T14:25:50.511Z,16.90
2018-11-06T14:27:55.974Z,16.13
2018-11-06T14:30:02.413Z,16.77
2018-11-06T14:32:08.076Z,15.10
2018-11-06T14:34:13.694Z,13.77
2018-11-06T14:36:18.899Z,13.60
2018-11-06T14:38:24.535Z,14.53
2018-11-06T14:40:30.568Z,11.70
2018-11-06T14:42:36.406Z,12.60
2018-11-06T14:44:42.080Z,18.10
2018-11-06T14:46:47.671Z,18.47
2018-11-06T14:48:53.432Z,12.90
2018-11-06T14:50:59.129Z,12.83
2018-11-06T14:53:04.873Z,9.60
2018-11-06T14:55:11.081Z,13.70
2018-11-06T14:57:17.173Z,11.83
2018-11-06T14:59:22.875Z,12.73
2018-11-06T15:01:28.533Z,13.83
2018-11-06T15:03:34.190Z,14.90
2018-11-06T15:05:41.434Z,12.47
2018-11-06T15:07:47.327Z,13.83
2018-11-06T15:09:53.076Z,13.33
2018-11-06T15:11:59.108Z,11.60
2018-11-06T15:14:05.230Z,11.60
2018-11-06T15:16:10.659Z,14.17
2018-11-06T15:18:16.320Z,12.30
2018-11-06T15:20:23.314Z,13.80
2018-11-06T15:22:28.876Z,14.30
2018-11-06T15:24:34.313Z,10.73
2018-11-06T15:26:40.079Z,10.27
2018-11-06T15:28:45.352Z,13.17
2018-11-06T15:30:51.253Z,11.13
2018-11-06T15:32:56.687Z,13.87
2018-11-06T15:35:02.846Z,10.13
2018-11-06T15:37:08.440Z,13.17
2018-11-06T15:39:15.099Z,9.27
2018-11-06T15:41:21.554Z,9.63
2018-11-06T15:43:27.489Z,10.00
2018-11-06T15:45:32.942Z,8.07
2018-11-06T15:47:39.184Z,9.20
2018-11-06T15:49:44.482Z,9.63
2018-11-06T15:51:50.294Z,8.43
2018-11-06T15:53:56.432Z,9.63
2018-11-06T15:56:02.367Z,10.03
2018-11-06T15:58:07.917Z,9.63
2018-11-06T16:00:13.942Z,8.70
2018-11-06T16:02:19.462Z,9.13
2018-11-06T16:04:24.688Z,11.60
2018-11-06T16:06:30.095Z,10.30
2018-11-06T16:08:35.347Z,9.03
2018-11-06T16:10:41.142Z,8.63
2018-11-06T16:12:47.225Z,10.90
2018-11-06T16:14:52.635Z,7.43
2018-11-06T16:16:58.124Z,9.10
2018-11-06T16:19:03.609Z,9.43
2018-11-06T16:21:08.936Z,8.60
2018-11-06T16:23:14.474Z,10.27
2018-11-06T16:25:20.655Z,12.13
2018-11-06T16:27:26.335Z,9.90
2018-11-06T16:29:31.922Z,8.93
2018-11-06T16:31:37.877Z,8.83
2018-11-06T16:33:43.670Z,8.53
2018-11-06T16:35:49.409Z,8.27
2018-11-06T16:37:55.506Z,9.30
2018-11-06T16:40:02.845Z,7.97
2018-11-06T16:42:08.591Z,7.73
2018-11-06T16:44:14.460Z,8.73
2018-11-06T16:46:19.930Z,7.83
2018-11-06T16:48:25.825Z,8.13
2018-11-06T16:50:31.186Z,8.63
2018-11-06T16:52:37.372Z,7.33
2018-11-06T16:54:43.226Z,9.97
2018-11-06T16:56:48.556Z,7.43
2018-11-06T16:58:54.446Z,8.60
2018-11-06T17:01:00.413Z,7.30
2018-11-06T17:03:05.759Z,8.93
2018-11-06T17:05:12.233Z,7.00
2018-11-06T17:07:18.489Z,6.60
2018-11-06T17:09:27.748Z,8.03
2018-11-06T17:11:34.091Z,6.33
2018-11-06T17:13:40.220Z,6.70
2018-11-06T17:15:45.972Z,8.63
2018-11-06T17:17:51.873Z,6.60
2018-11-06T17:19:57.602Z,6.70
2018-11-06T17:22:02.769Z,6.50
2018-11-06T17:24:08.494Z,10.13
2018-11-06T17:26:14.568Z,6.70
2018-11-06T17:28:20.011Z,6.07
2018-11-06T17:30:25.896Z,5.03
2018-11-06T17:32:31.496Z,5.00
2018-11-06T17:34:37.356Z,8.30
2018-11-06T17:36:42.578Z,7.60
2018-11-06T17:38:48.568Z,5.40
2018-11-06T17:40:54.305Z,5.40
2018-11-06T17:43:00.719Z,5.20
2018-11-06T17:45:06.590Z,4.83
2018-11-06T17:47:12.279Z,4.70
2018-11-06T17:49:17.836Z,5.70
2018-11-06T17:51:23.643Z,5.07
2018-11-06T17:53:29.742Z,7.33
2018-11-06T17:55:35.569Z,6.33
2018-11-06T17:57:41.508Z,6.43
2018-11-06T17:59:47.336Z,5.50
2018-11-06T18:01:53.022Z,6.53
2018-11-06T18:03:59.937Z,9.43
2018-11-06T18:06:05.853Z,4.67
2018-11-06T18:08:11.316Z,4.70
2018-11-06T18:10:21.165Z,6.03
2018-11-06T18:12:27.739Z,3.70
2018-11-06T18:14:33.270Z,5.77
2018-11-06T18:16:39.038Z,5.27
2018-11-06T18:18:45.215Z,4.13
2018-11-06T18:20:50.349Z,4.60
2018-11-06T18:22:56.127Z,4.90
2018-11-06T18:25:02.038Z,4.40
2018-11-06T18:27:07.510Z,4.50
2018-11-06T18:29:12.736Z,4.00
2018-11-06T18:31:18.517Z,4.43
2018-11-06T18:33:24.214Z,8.10
2018-11-06T18:35:30.425Z,4.27
2018-11-06T18:37:36.197Z,3.43
2018-11-06T18:39:41.768Z,4.40
2018-11-06T18:41:47.673Z,4.47
2018-11-06T18:43:53.908Z,5.17
2018-11-06T18:45:59.466Z,4.13
2018-11-06T18:48:05.664Z,6.20
2018-11-06T18:50:11.317Z,4.17
2018-11-06T18:52:17.585Z,5.60
2018-11-06T18:54:23.409Z,3.60
2018-11-06T18:56:29.030Z,4.20
2018-11-06T18:58:35.193Z,4.00
2018-11-06T19:00:40.939Z,3.97
2018-11-06T19:02:47.303Z,4.87
2018-11-06T19:04:53.111Z,4.20
2018-11-06T19:06:58.815Z,3.70
2018-11-06T19:09:04.578Z,4.87
2018-11-06T19:11:10.482Z,5.50
2018-11-06T19:13:16.400Z,3.60
2018-11-06T19:15:23.483Z,4.63
2018-11-06T19:17:29.234Z,3.00
2018-11-06T19:19:34.787Z,4.73
2018-11-06T19:21:40.247Z,3.50
2018-11-06T19:23:46.355Z,2.93
2018-11-06T19:25:57.454Z,5.80
2018-11-06T19:28:02.844Z,4.03
2018-11-06T19:30:08.571Z,3.60
2018-11-06T19:32:14.465Z,7.10
2018-11-06T19:34:20.411Z,3.00
2018-11-06T19:36:26.173Z,3.73
2018-11-06T19:38:31.771Z,4.10
2018-11-06T19:40:37.403Z,3.20
2018-11-06T19:42:43.858Z,3.47
2018-11-06T19:44:49.803Z,3.37
2018-11-06T19:46:55.218Z,6.13
2018-11-06T19:49:01.528Z,8.63
2018-11-06T19:51:07.153Z,5.67
2018-11-06T19:53:13.080Z,5.07
2018-11-06T19:55:19.838Z,3.30
2018-11-06T19:57:26.016Z,3.60
2018-11-06T19:59:31.882Z,4.60
2018-11-06T20:01:37.957Z,4.10
2018-11-06T20:03:44.156Z,8.40
2018-11-06T20:05:49.810Z,4.53
2018-11-06T20:07:55.933Z,5.10
2018-11-06T20:10:01.002Z,6.73
2018-11-06T20:12:06.679Z,3.90
2018-11-06T20:14:12.219Z,3.20
2018-11-06T20:16:17.578Z,4.43
2018-11-06T20:18:23.612Z,2.67
2018-11-06T20:20:29.591Z,3.93
2018-11-06T20:22:35.402Z,2.70
2018-11-06T20:24:41.037Z,3.83
2018-11-06T20:26:46.867Z,4.70
2018-11-06T20:28:52.474Z,3.77
2018-11-06T20:30:57.717Z,2.40
2018-11-06T20:33:03.871Z,3.70
2018-11-06T20:35:09.602Z,3.33
2018-11-06T20:37:15.322Z,3.97
2018-11-06T20:39:20.849Z,3.43
2018-11-06T20:41:26.478Z,2.60
2018-11-06T20:43:32.004Z,2.87
2018-11-06T20:45:37.643Z,3.10
2018-11-06T20:47:43.538Z,5.10
2018-11-06T20:49:49.300Z,2.73
2018-11-06T20:51:55.450Z,2.87
2018-11-06T20:54:01.462Z,2.50
2018-11-06T20:56:06.966Z,2.80
2018-11-06T20:58:13.195Z,2.20
2018-11-06T21:00:22.767Z,4.00
2018-11-06T21:02:28.721Z,3.40
2018-11-06T21:04:34.669Z,2.90
2018-11-06T21:06:40.248Z,3.23
2018-11-06T21:08:45.763Z,2.60
2018-11-06T21:10:51.493Z,2.40
2018-11-06T21:12:57.659Z,3.90
2018-11-06T21:15:03.565Z,2.70
2018-11-06T21:17:09.469Z,3.03
2018-11-06T21:19:14.884Z,2.53
2018-11-06T21:21:20.894Z,3.13
2018-11-06T21:23:26.610Z,3.83
2018-11-06T21:25:32.563Z,2.77
2018-11-06T21:27:38.443Z,4.30
2018-11-06T21:29:44.201Z,3.63
2018-11-06T21:31:49.831Z,3.20
2018-11-06T21:33:56.032Z,3.33
2018-11-06T21:36:01.981Z,3.10
2018-11-06T21:38:07.780Z,2.93
2018-11-06T21:40:14.170Z,7.13
2018-11-06T21:42:20.081Z,4.60
2018-11-06T21:44:26.452Z,3.70
2018-11-06T21:46:32.072Z,3.13
2018-11-06T21:48:38.192Z,4.20
2018-11-06T21:50:43.855Z,2.97
2018-11-06T21:52:49.458Z,4.97
2018-11-06T21:54:55.335Z,5.87
2018-11-06T21:57:01.436Z,2.40
2018-11-06T21:59:07.041Z,3.50
2018-11-06T22:01:12.539Z,3.33
2018-11-06T22:03:17.861Z,4.20
2018-11-06T22:05:24.382Z,2.90
2018-11-06T22:07:40.320Z,5.23
2018-11-06T22:09:46.698Z,5.67
2018-11-06T22:11:52.826Z,4.17
2018-11-06T22:13:58.518Z,2.60
2018-11-06T22:16:04.506Z,2.63
2018-11-06T22:18:10.173Z,3.53
2018-11-06T22:20:16.765Z,2.90
2018-11-06T22:22:22.410Z,4.80
2018-11-06T22:24:28.537Z,2.53
2018-11-06T22:26:34.065Z,3.23
2018-11-06T22:28:39.378Z,3.97
2018-11-06T22:30:46.024Z,3.03
2018-11-06T22:32:51.948Z,2.10
2018-11-06T22:34:57.735Z,2.93
2018-11-06T22:37:03.710Z,2.20
2018-11-06T22:39:09.224Z,2.87
2018-11-06T22:41:15.289Z,4.13
2018-11-06T22:43:21.535Z,2.90
2018-11-06T22:45:27.152Z,4.40
2018-11-06T22:47:32.940Z,2.37
2018-11-06T22:49:38.669Z,2.23
2018-11-06T22:51:44.700Z,4.03
2018-11-06T22:53:50.688Z,4.27
2018-11-06T22:55:56.396Z,5.93
2018-11-06T22:58:02.566Z,3.17
2018-11-06T23:00:08.313Z,2.40
2018-11-06T23:02:14.311Z,2.83
2018-11-06T23:04:20.022Z,6.33
2018-11-06T23:06:25.856Z,4.20
2018-11-06T23:08:32.315Z,2.17
2018-11-06T23:10:38.595Z,2.33
2018-11-06T23:12:44.840Z,3.07
2018-11-06T23:14:50.754Z,2.30
2018-11-06T23:16:56.475Z,3.10
2018-11-06T23:19:02.258Z,2.07
2018-11-06T23:21:07.450Z,2.83
2018-11-06T23:23:13.099Z,2.40
2018-11-06T23:25:18.622Z,3.23
2018-11-06T23:27:24.709Z,2.47
2018-11-06T23:29:29.916Z,2.77
2018-11-06T23:31:36.140Z,3.37
2018-11-06T23:33:41.996Z,3.47
2018-11-06T23:35:47.681Z,3.97
2018-11-06T23:37:53.062Z,5.03
2018-11-06T23:39:58.868Z,3.80
2018-11-06T23:42:04.593Z,2.80
2018-11-06T23:44:10.349Z,2.70
2018-11-06T23:46:16.365Z,3.30
2018-11-06T23:48:22.350Z,2.87
2018-11-06T23:50:27.982Z,3.20
2018-11-06T23:52:33.605Z,4.13
2018-11-06T23:54:39.949Z,2.70
2018-11-06T23:56:45.660Z,2.53
2018-11-06T23:58:51.108Z,2.97
